Time;durP1;ratioP1;P1;durP2;ratioP2;P2;SDS_P1;SDS_P2;PMS_P1;PMS_P2;Temp;Humidity;BMP_temperature;BMP_pressure;BME280_temperature;BME280_humidity;BME280_pressure;Samples;Min_cycle;Max_cycle;Signal;HPM_P1;HPM_P2
2023/09/28 00:01:46;;;;;;;11.75;7.07;;;20.00;99.90;;;;;;5016908;28;20727;-73
2023/09/28 00:04:11;;;;;;;10.35;7.10;;;20.00;99.90;;;;;;5017787;28;20255;-73
2023/09/28 00:06:37;;;;;;;9.80;7.53;;;19.90;99.90;;;;;;5022242;28;20173;-73
2023/09/28 00:09:03;;;;;;;12.00;7.20;;;19.90;99.90;;;;;;5017907;28;20659;-73
2023/09/28 00:11:29;;;;;;;10.82;7.30;;;19.90;99.90;;;;;;5018457;28;20201;-73
2023/09/28 00:13:55;;;;;;;8.25;6.75;;;19.80;99.90;;;;;;5021932;28;20253;-73
2023/09/28 00:16:20;;;;;;;9.20;7.35;;;19.80;99.90;;;;;;5018989;28;20224;-74
2023/09/28 00:18:46;;;;;;;10.68;7.50;;;19.80;99.90;;;;;;5021177;28;20315;-73
2023/09/28 00:21:12;;;;;;;11.15;7.95;;;19.70;99.90;;;;;;5020146;28;20191;-72
2023/09/28 00:23:37;;;;;;;9.07;7.40;;;19.80;99.90;;;;;;5020310;28;20209;-74
2023/09/28 00:26:03;;;;;;;12.82;7.47;;;19.70;99.90;;;;;;5020985;28;20215;-73
2023/09/28 00:28:28;;;;;;;14.52;7.82;;;19.70;99.90;;;;;;5019495;28;20702;-73
2023/09/28 00:30:55;;;;;;;12.15;7.60;;;19.80;99.90;;;;;;5021238;28;20212;-73
2023/09/28 00:33:20;;;;;;;10.80;7.45;;;19.70;99.90;;;;;;5014445;28;20197;-74
2023/09/28 00:35:46;;;;;;;10.82;7.15;;;19.70;99.90;;;;;;5021824;28;20200;-73
2023/09/28 00:38:11;;;;;;;12.25;7.38;;;19.60;99.90;;;;;;5018076;28;20216;-73
2023/09/28 00:40:40;;;;;;;11.80;7.78;;;19.60;99.90;;;;;;5022033;28;20204;-73
2023/09/28 00:43:06;;;;;;;12.45;7.50;;;19.60;99.90;;;;;;5014644;28;20224;-74
2023/09/28 00:45:32;;;;;;;11.60;7.65;;;19.50;99.90;;;;;;5018253;28;20219;-74
2023/09/28 00:48:02;;;;;;;11.63;7.55;;;19.50;99.90;;;;;;5021497;28;20183;-73
2023/09/28 00:50:32;;;;;;;9.25;7.05;;;19.50;99.90;;;;;;5018378;28;20292;-71
2023/09/28 00:53:00;;;;;;;12.15;7.00;;;19.40;99.90;;;;;;5021492;28;20266;-74
2023/09/28 00:55:27;;;;;;;10.75;7.20;;;19.30;99.90;;;;;;5017151;28;20216;-73
2023/09/28 00:58:02;;;;;;;10.48;7.25;;;19.30;99.90;;;;;;5020027;28;20687;-72
2023/09/28 01:00:33;;;;;;;11.77;7.72;;;19.30;99.90;;;;;;5017548;28;20655;-73
2023/09/28 01:03:05;;;;;;;13.02;7.55;;;19.30;99.90;;;;;;5017425;28;20558;-73
2023/09/28 01:05:33;;;;;;;10.00;7.40;;;19.20;99.90;;;;;;5016984;28;20204;-73
2023/09/28 01:08:09;;;;;;;9.48;7.43;;;19.20;99.90;;;;;;5024146;28;20211;-73
2023/09/28 01:10:36;;;;;;;9.50;6.90;;;19.20;99.90;;;;;;5022713;28;20242;-73
2023/09/28 01:13:23;;;;;;;9.40;6.75;;;19.20;99.90;;;;;;5023126;28;20227;-73
2023/09/28 01:15:49;;;;;;;11.80;7.43;;;19.10;99.90;;;;;;5023973;28;20212;-74
2023/09/28 01:18:20;;;;;;;13.93;6.97;;;19.10;99.90;;;;;;5022206;28;20232;-73
2023/09/28 01:20:47;;;;;;;8.75;6.95;;;19.20;99.90;;;;;;5024867;28;20565;-73
2023/09/28 01:23:13;;;;;;;10.23;7.13;;;19.10;99.90;;;;;;5021163;28;20217;-73
2023/09/28 01:25:40;;;;;;;9.27;6.30;;;19.10;99.90;;;;;;5022075;28;20225;-73
2023/09/28 01:28:07;;;;;;;8.57;6.80;;;19.00;99.90;;;;;;5023477;28;20250;-73
2023/09/28 01:30:33;;;;;;;9.65;6.80;;;19.10;99.90;;;;;;5020907;28;20272;-72
2023/09/28 01:33:00;;;;;;;12.00;7.30;;;19.10;99.90;;;;;;5022100;28;20200;-74
2023/09/28 01:35:27;;;;;;;12.30;7.45;;;19.00;99.90;;;;;;5021614;28;20205;-73
2023/09/28 01:38:18;;;;;;;12.88;7.32;;;18.90;99.90;;;;;;5023956;28;20287;-73
2023/09/28 01:40:46;;;;;;;11.82;7.47;;;18.90;99.90;;;;;;5020709;28;20220;-73
2023/09/28 01:43:12;;;;;;;8.77;6.30;;;18.90;99.90;;;;;;5020811;28;20246;-73
2023/09/28 01:45:37;;;;;;;10.65;7.00;;;18.90;99.90;;;;;;5022939;28;20177;-73
2023/09/28 01:48:06;;;;;;;11.02;7.32;;;18.80;99.90;;;;;;5022488;28;20210;-73
2023/09/28 01:50:33;;;;;;;18.77;7.25;;;18.90;99.90;;;;;;5022307;28;20209;-73
2023/09/28 01:52:58;;;;;;;9.70;7.05;;;18.90;99.90;;;;;;5022732;28;20226;-73
2023/09/28 01:55:24;;;;;;;9.85;7.15;;;18.80;99.90;;;;;;5020669;28;20611;-73
2023/09/28 01:57:50;;;;;;;9.65;6.72;;;18.80;99.90;;;;;;5022181;28;20219;-72
2023/09/28 02:00:19;;;;;;;12.52;5.93;;;18.70;99.90;;;;;;5019955;28;20265;-72
2023/09/28 02:02:46;;;;;;;8.18;6.30;;;18.80;99.90;;;;;;5016548;28;20236;-73
2023/09/28 02:05:16;;;;;;;9.35;6.63;;;18.70;99.90;;;;;;5020292;28;20598;-73
2023/09/28 02:07:42;;;;;;;10.40;6.45;;;18.60;99.90;;;;;;5018069;28;20241;-73
2023/09/28 02:10:09;;;;;;;9.40;7.05;;;18.60;99.90;;;;;;5022747;28;20311;-73
2023/09/28 02:12:38;;;;;;;9.60;6.50;;;18.50;99.90;;;;;;5006820;28;20193;-73
2023/09/28 02:15:04;;;;;;;11.18;6.75;;;18.60;99.90;;;;;;5024397;28;20176;-73
2023/09/28 02:17:30;;;;;;;14.52;7.22;;;18.40;99.90;;;;;;5019239;28;20201;-74
2023/09/28 02:19:56;;;;;;;8.18;6.50;;;18.40;99.90;;;;;;5018117;28;20226;-73
2023/09/28 02:22:22;;;;;;;14.88;6.50;;;18.30;99.90;;;;;;5019659;28;20232;-73
2023/09/28 02:24:50;;;;;;;8.38;6.75;;;18.40;99.90;;;;;;5023619;28;20633;-73
2023/09/28 02:27:17;;;;;;;10.48;6.75;;;18.30;99.90;;;;;;5020954;28;20184;-73
2023/09/28 02:29:44;;;;;;;11.02;7.22;;;18.40;99.90;;;;;;5023032;28;20214;-73
2023/09/28 02:32:10;;;;;;;10.68;6.07;;;18.30;99.90;;;;;;5020513;28;20678;-74
2023/09/28 02:34:35;;;;;;;10.55;7.13;;;18.30;99.90;;;;;;5022382;28;20676;-73
2023/09/28 02:37:02;;;;;;;9.40;6.28;;;18.30;99.90;;;;;;5018380;28;20205;-73
2023/09/28 02:39:28;;;;;;;15.43;6.85;;;18.30;99.90;;;;;;5020184;28;20218;-74
2023/09/28 02:41:55;;;;;;;10.38;6.82;;;18.30;99.90;;;;;;5019091;28;20247;-73
2023/09/28 02:44:21;;;;;;;9.88;7.38;;;18.30;99.90;;;;;;5018629;28;20204;-74
2023/09/28 02:46:47;;;;;;;10.52;6.55;;;18.20;99.90;;;;;;5020933;28;20278;-73
2023/09/28 02:49:13;;;;;;;10.02;7.35;;;18.20;99.90;;;;;;5022835;28;20209;-73
2023/09/28 02:51:39;;;;;;;9.63;6.25;;;18.10;99.90;;;;;;5019774;28;20212;-74
2023/09/28 02:54:05;;;;;;;9.98;5.97;;;18.10;99.90;;;;;;5022713;28;20198;-73
2023/09/28 02:56:30;;;;;;;10.15;7.13;;;18.10;99.90;;;;;;5019512;28;20611;-73
2023/09/28 02:58:56;;;;;;;9.27;6.38;;;18.10;99.90;;;;;;5023096;28;20214;-74
2023/09/28 03:01:22;;;;;;;10.10;6.93;;;18.20;99.90;;;;;;5018534;28;20205;-73
2023/09/28 03:03:49;;;;;;;10.00;6.68;;;18.10;99.90;;;;;;5022434;28;20587;-73
2023/09/28 03:06:15;;;;;;;11.63;7.88;;;18.00;99.90;;;;;;5019776;28;20181;-73
2023/09/28 03:08:41;;;;;;;9.25;6.15;;;18.00;99.90;;;;;;5020379;28;20223;-73
2023/09/28 03:11:06;;;;;;;10.52;6.15;;;17.90;99.90;;;;;;5021052;28;20216;-73
2023/09/28 03:13:32;;;;;;;8.52;6.28;;;17.80;99.90;;;;;;5017979;28;20713;-73
2023/09/28 03:15:58;;;;;;;10.90;6.97;;;17.80;99.90;;;;;;5020936;28;20275;-73
2023/09/28 03:18:23;;;;;;;8.27;5.63;;;17.80;99.90;;;;;;5020859;28;20627;-72
2023/09/28 03:20:49;;;;;;;10.13;6.70;;;17.80;99.90;;;;;;5020126;28;20205;-73
2023/09/28 03:23:15;;;;;;;9.55;6.43;;;17.90;99.90;;;;;;5020837;28;20764;-74
2023/09/28 03:25:42;;;;;;;9.50;6.68;;;17.80;99.90;;;;;;5017747;28;20240;-74
2023/09/28 03:28:08;;;;;;;10.73;6.93;;;17.70;99.90;;;;;;5015386;28;20262;-74
2023/09/28 03:30:33;;;;;;;10.35;7.20;;;17.70;99.90;;;;;;5018995;28;20185;-73
2023/09/28 03:32:59;;;;;;;9.43;7.10;;;17.70;99.90;;;;;;5022256;28;20192;-74
2023/09/28 03:35:26;;;;;;;8.93;6.82;;;17.60;99.90;;;;;;5018843;28;20221;-72
2023/09/28 03:37:57;;;;;;;9.48;6.72;;;17.60;99.90;;;;;;5022222;28;20201;-73
2023/09/28 03:40:23;;;;;;;10.88;7.32;;;17.60;99.90;;;;;;5019613;28;20244;-74
2023/09/28 03:42:49;;;;;;;10.02;7.38;;;17.60;99.90;;;;;;5016556;28;20224;-74
2023/09/28 03:45:20;;;;;;;10.18;7.18;;;17.50;99.90;;;;;;5021148;28;20180;-74
2023/09/28 03:47:45;;;;;;;10.13;6.63;;;17.40;99.90;;;;;;5020252;28;20270;-73
2023/09/28 03:50:12;;;;;;;9.82;6.60;;;17.40;99.90;;;;;;5018757;28;20679;-74
2023/09/28 03:52:39;;;;;;;11.30;6.50;;;17.40;99.90;;;;;;5018908;28;20220;-74
2023/09/28 03:55:09;;;;;;;11.87;7.70;;;17.40;99.90;;;;;;5019298;28;20415;-73
2023/09/28 03:57:35;;;;;;;10.10;7.18;;;17.30;99.90;;;;;;5020530;28;20423;-73
2023/09/28 04:00:02;;;;;;;12.82;7.05;;;17.30;99.90;;;;;;5021208;28;20214;-74
2023/09/28 04:02:28;;;;;;;13.23;7.80;;;17.20;99.90;;;;;;5019747;28;20235;-72
2023/09/28 04:04:54;;;;;;;11.70;6.78;;;17.30;99.90;;;;;;5020022;28;20569;-74
2023/09/28 04:07:19;;;;;;;12.45;7.20;;;17.40;99.90;;;;;;5020820;28;20212;-74
2023/09/28 04:09:45;;;;;;;10.48;6.60;;;17.40;99.90;;;;;;5019060;28;20191;-74
2023/09/28 04:12:12;;;;;;;13.23;7.35;;;17.40;99.90;;;;;;5015551;28;20210;-74
2023/09/28 04:14:38;;;;;;;8.30;7.20;;;17.30;99.90;;;;;;5020526;28;20236;-74
2023/09/28 04:17:03;;;;;;;9.52;7.65;;;17.20;99.90;;;;;;5020965;28;20235;-74
2023/09/28 04:19:30;;;;;;;11.60;7.47;;;17.30;99.90;;;;;;5017850;28;20240;-72
2023/09/28 04:21:56;;;;;;;11.43;6.90;;;17.30;99.90;;;;;;5021367;28;20220;-71
2023/09/28 04:24:21;;;;;;;12.30;7.65;;;17.40;99.90;;;;;;5019428;28;20265;-74
2023/09/28 04:26:47;;;;;;;10.38;7.10;;;17.30;99.90;;;;;;5018411;28;20636;-74
2023/09/28 04:29:13;;;;;;;11.48;7.80;;;17.30;99.90;;;;;;5017982;28;20826;-74
2023/09/28 04:31:40;;;;;;;11.40;6.95;;;17.30;99.90;;;;;;5019860;28;20608;-74
2023/09/28 04:34:07;;;;;;;9.55;7.15;;;17.10;99.90;;;;;;5020194;28;20259;-74
2023/09/28 04:36:33;;;;;;;9.45;6.82;;;17.00;99.90;;;;;;5020210;28;20686;-74
2023/09/28 04:38:59;;;;;;;13.77;6.82;;;17.10;99.90;;;;;;5020261;28;20220;-73
2023/09/28 04:41:26;;;;;;;12.23;6.88;;;17.10;99.90;;;;;;5022075;28;20216;-74
2023/09/28 04:43:52;;;;;;;14.73;7.55;;;17.10;99.90;;;;;;5021894;28;20197;-72
2023/09/28 04:46:17;;;;;;;10.18;7.32;;;17.10;99.90;;;;;;5024363;28;20200;-74
2023/09/28 04:48:43;;;;;;;10.63;7.63;;;17.00;99.90;;;;;;5022302;28;20193;-74
2023/09/28 04:51:09;;;;;;;11.05;7.15;;;17.10;99.90;;;;;;5027356;28;20180;-74
2023/09/28 04:53:34;;;;;;;10.68;7.95;;;17.10;99.90;;;;;;5020507;28;20294;-73
2023/09/28 04:56:10;;;;;;;10.82;7.53;;;17.10;99.90;;;;;;5025591;28;20212;-74
2023/09/28 04:58:35;;;;;;;13.63;7.60;;;17.00;99.90;;;;;;5019552;28;20679;-74
2023/09/28 05:01:01;;;;;;;10.20;6.97;;;17.10;99.90;;;;;;5023147;28;20279;-73
2023/09/28 05:03:27;;;;;;;10.55;7.45;;;17.00;99.90;;;;;;5021852;28;20189;-74
2023/09/28 05:05:52;;;;;;;10.93;7.38;;;17.00;99.90;;;;;;5021317;28;20721;-74
2023/09/28 05:08:18;;;;;;;13.45;7.95;;;17.00;99.90;;;;;;5024684;28;20212;-73
2023/09/28 05:10:44;;;;;;;10.77;8.30;;;17.10;99.90;;;;;;5023045;28;20208;-74
2023/09/28 05:13:12;;;;;;;9.80;7.78;;;17.10;99.90;;;;;;5023522;28;20205;-74
2023/09/28 05:15:38;;;;;;;10.82;7.60;;;17.10;99.90;;;;;;5021951;28;20229;-74
2023/09/28 05:18:04;;;;;;;13.73;7.47;;;17.10;99.90;;;;;;5023902;28;20182;-73
2023/09/28 05:20:30;;;;;;;10.82;7.10;;;17.30;99.90;;;;;;5022484;28;20567;-72
2023/09/28 05:22:56;;;;;;;11.00;7.38;;;17.30;99.90;;;;;;5022212;28;20217;-73
2023/09/28 05:25:21;;;;;;;10.98;7.68;;;17.30;99.90;;;;;;5024637;28;20242;-73
2023/09/28 05:27:47;;;;;;;13.35;7.63;;;17.40;99.90;;;;;;5021694;28;20296;-74
2023/09/28 05:30:13;;;;;;;13.23;7.68;;;17.40;99.90;;;;;;5021899;28;20303;-73
2023/09/28 05:32:39;;;;;;;10.07;7.10;;;17.40;99.90;;;;;;5020688;28;20256;-73
2023/09/28 05:35:06;;;;;;;11.25;7.00;;;17.40;99.90;;;;;;5025037;28;20220;-73
2023/09/28 05:37:32;;;;;;;11.93;7.57;;;17.40;99.90;;;;;;5021501;28;20255;-73
2023/09/28 05:39:59;;;;;;;11.77;7.72;;;17.50;99.90;;;;;;5019939;28;20662;-73
2023/09/28 05:42:25;;;;;;;11.60;7.35;;;17.50;99.90;;;;;;5022914;28;20302;-74
2023/09/28 05:44:52;;;;;;;14.40;8.48;;;17.50;99.90;;;;;;5022303;28;20299;-72
2023/09/28 05:47:20;;;;;;;8.27;6.78;;;17.70;99.90;;;;;;5023513;28;20215;-73
2023/09/28 05:49:51;;;;;;;10.55;7.03;;;17.70;99.90;;;;;;5020635;28;20216;-73
2023/09/28 05:52:18;;;;;;;15.48;8.05;;;17.80;99.90;;;;;;5021097;28;20224;-73
2023/09/28 05:54:43;;;;;;;11.60;7.65;;;17.90;99.90;;;;;;5019872;28;20271;-73
2023/09/28 05:57:09;;;;;;;12.77;8.00;;;18.10;99.90;;;;;;5023535;28;20716;-73
2023/09/28 05:59:35;;;;;;;11.50;7.72;;;18.90;99.90;;;;;;5018953;28;20215;-73
2023/09/28 06:02:00;;;;;;;11.05;7.53;;;19.90;99.90;;;;;;5021950;28;20244;-73
2023/09/28 06:04:27;;;;;;;12.05;7.15;;;21.00;99.90;;;;;;5021956;28;20718;-73
2023/09/28 06:06:53;;;;;;;11.32;7.65;;;22.10;99.90;;;;;;5020046;28;20211;-74
2023/09/28 06:09:19;;;;;;;9.07;6.63;;;23.10;99.90;;;;;;5022800;28;20176;-74
2023/09/28 06:11:48;;;;;;;11.40;6.45;;;23.60;99.90;;;;;;5019482;28;20308;-74
2023/09/28 06:14:15;;;;;;;9.73;6.45;;;24.10;99.90;;;;;;5023518;28;20740;-74
2023/09/28 06:16:42;;;;;;;10.95;7.45;;;24.50;99.90;;;;;;5020425;28;20821;-73
2023/09/28 06:19:09;;;;;;;9.35;6.47;;;25.10;99.90;;;;;;5020856;28;20209;-74
2023/09/28 06:21:35;;;;;;;9.00;6.03;;;25.10;99.90;;;;;;5023950;28;20271;-75
2023/09/28 06:24:01;;;;;;;8.77;6.57;;;24.60;99.90;;;;;;5020076;28;20208;-74
2023/09/28 06:26:27;;;;;;;9.93;7.10;;;24.10;99.90;;;;;;5024595;28;20227;-74
2023/09/28 06:28:54;;;;;;;10.32;7.13;;;24.50;99.90;;;;;;5020582;28;20611;-74
2023/09/28 06:31:20;;;;;;;7.43;5.57;;;24.00;99.90;;;;;;5019451;28;20772;-73
2023/09/28 06:33:48;;;;;;;8.07;6.85;;;24.60;99.90;;;;;;5020938;28;20172;-74
2023/09/28 06:36:15;;;;;;;10.52;7.40;;;24.20;99.90;;;;;;5022045;28;20177;-74
2023/09/28 06:38:41;;;;;;;11.23;6.65;;;24.30;99.90;;;;;;5021353;28;20208;-74
2023/09/28 06:41:06;;;;;;;12.65;6.75;;;25.00;99.90;;;;;;5020536;28;20197;-74
2023/09/28 06:43:32;;;;;;;9.00;6.70;;;25.50;99.90;;;;;;5021550;28;20212;-74
2023/09/28 06:45:58;;;;;;;8.10;6.50;;;25.20;99.90;;;;;;5021517;28;20205;-74
2023/09/28 06:48:25;;;;;;;8.43;6.82;;;25.80;99.90;;;;;;5022975;28;20176;-74
2023/09/28 06:50:53;;;;;;;10.23;6.35;;;26.20;99.90;;;;;;5023812;28;20288;-70
2023/09/28 06:53:19;;;;;;;8.32;6.15;;;27.20;99.90;;;;;;5019149;28;20216;-72
2023/09/28 06:55:45;;;;;;;9.45;6.60;;;26.90;99.90;;;;;;5022900;28;20604;-71
2023/09/28 06:58:14;;;;;;;12.23;6.70;;;27.20;99.90;;;;;;5019847;28;20275;-72
2023/09/28 07:00:41;;;;;;;8.75;7.35;;;26.80;99.90;;;;;;5019564;28;20176;-72
2023/09/28 07:03:08;;;;;;;10.10;6.70;;;27.10;99.90;;;;;;5018624;28;20193;-72
2023/09/28 07:05:34;;;;;;;11.13;6.78;;;27.00;99.90;;;;;;5022902;28;20212;-72
2023/09/28 07:08:00;;;;;;;7.72;6.57;;;27.50;99.90;;;;;;5019229;28;20205;-72
2023/09/28 07:10:26;;;;;;;8.73;6.57;;;27.90;99.90;;;;;;5023432;28;20283;-72
2023/09/28 07:12:52;;;;;;;9.90;7.65;;;27.90;99.90;;;;;;5018963;28;20235;-72
2023/09/28 07:15:18;;;;;;;11.15;7.43;;;27.10;99.90;;;;;;5023225;28;20251;-74
2023/09/28 07:17:44;;;;;;;9.43;6.40;;;26.80;99.90;;;;;;5020229;28;20626;-74
2023/09/28 07:20:14;;;;;;;9.77;6.68;;;26.30;99.90;;;;;;5020603;28;20267;-74
2023/09/28 07:22:40;;;;;;;7.97;6.20;;;26.80;99.90;;;;;;5020115;28;20204;-74
2023/09/28 07:25:06;;;;;;;9.63;6.55;;;27.00;99.90;;;;;;5020357;28;20213;-74
2023/09/28 07:27:32;;;;;;;11.00;6.55;;;26.80;99.90;;;;;;5020438;28;20191;-74
2023/09/28 07:29:59;;;;;;;10.23;6.97;;;26.80;99.90;;;;;;5015749;28;20177;-74
2023/09/28 07:32:26;;;;;;;8.35;6.78;;;27.10;99.90;;;;;;5020532;28;20211;-75
2023/09/28 07:34:55;;;;;;;11.55;6.20;;;27.30;99.90;;;;;;5021482;28;20200;-73
2023/09/28 07:37:21;;;;;;;10.57;6.75;;;27.80;99.90;;;;;;5020548;28;20201;-74
2023/09/28 07:39:46;;;;;;;9.57;6.85;;;27.00;99.90;;;;;;5021379;28;20281;-73
2023/09/28 07:42:13;;;;;;;8.30;6.50;;;26.80;99.90;;;;;;5019422;28;20251;-72
2023/09/28 07:44:40;;;;;;;7.38;6.05;;;27.10;99.90;;;;;;5020861;28;20291;-71
2023/09/28 07:47:08;;;;;;;8.95;5.85;;;28.40;99.90;;;;;;5017591;28;20209;-72
2023/09/28 07:49:33;;;;;;;12.35;6.78;;;28.20;99.90;;;;;;5018273;28;20209;-72
2023/09/28 07:52:00;;;;;;;8.48;6.18;;;27.60;99.90;;;;;;5019990;28;20228;-72
2023/09/28 07:54:26;;;;;;;8.00;6.28;;;28.50;99.90;;;;;;5015716;28;20187;-73
2023/09/28 07:56:51;;;;;;;8.38;5.57;;;28.80;99.90;;;;;;5019326;28;20181;-71
2023/09/28 07:59:17;;;;;;;8.02;6.15;;;29.40;99.90;;;;;;5021392;28;20208;-72
2023/09/28 08:01:42;;;;;;;9.55;6.65;;;30.00;99.90;;;;;;5018624;28;20597;-73
2023/09/28 08:04:08;;;;;;;7.97;5.82;;;30.10;99.90;;;;;;5020465;28;20211;-73
2023/09/28 08:06:35;;;;;;;8.15;5.90;;;30.10;99.90;;;;;;5018586;28;20307;-73
2023/09/28 08:09:01;;;;;;;11.98;6.45;;;30.60;99.90;;;;;;5017376;28;20183;-73
2023/09/28 08:11:27;;;;;;;7.55;5.97;;;29.70;99.90;;;;;;5019979;28;20209;-73
2023/09/28 08:13:52;;;;;;;7.53;5.65;;;29.40;99.90;;;;;;5020529;28;20238;-71
2023/09/28 08:16:18;;;;;;;9.15;6.03;;;29.00;99.90;;;;;;5019000;28;20638;-72
2023/09/28 08:18:44;;;;;;;7.88;5.85;;;28.90;99.90;;;;;;5021639;28;20263;-73
2023/09/28 08:21:10;;;;;;;11.07;5.72;;;29.00;99.90;;;;;;5019095;28;20261;-73
2023/09/28 08:23:37;;;;;;;6.72;5.78;;;29.60;99.90;;;;;;5021547;28;20386;-73
2023/09/28 08:26:03;;;;;;;7.88;5.47;;;29.90;99.90;;;;;;5016804;28;20216;-73
2023/09/28 08:28:29;;;;;;;7.00;5.32;;;29.50;99.90;;;;;;5021686;28;20208;-73
2023/09/28 08:30:56;;;;;;;7.75;5.15;;;29.60;99.90;;;;;;5017335;28;20270;-72
2023/09/28 08:33:22;;;;;;;8.18;6.18;;;28.90;99.90;;;;;;5021752;28;20192;-73
2023/09/28 08:35:51;;;;;;;8.75;6.22;;;29.00;99.90;;;;;;5019770;28;20230;-72
2023/09/28 08:38:17;;;;;;;6.85;6.13;;;28.30;99.90;;;;;;5020712;28;20565;-73
2023/09/28 08:40:43;;;;;;;8.05;5.65;;;28.00;99.90;;;;;;5019593;28;20207;-73
2023/09/28 08:43:11;;;;;;;7.50;5.53;;;27.60;99.90;;;;;;5019980;28;20229;-72
2023/09/28 08:45:40;;;;;;;9.63;5.80;;;28.40;99.90;;;;;;5018028;28;20655;-73
2023/09/28 08:48:09;;;;;;;9.38;5.35;;;29.00;99.90;;;;;;5019497;28;20184;-72
2023/09/28 08:50:38;;;;;;;7.03;6.13;;;29.10;99.90;;;;;;5020406;28;20240;-72
2023/09/28 08:53:05;;;;;;;9.27;5.97;;;28.40;99.90;;;;;;5018490;28;20212;-72
2023/09/28 08:55:33;;;;;;;9.13;5.82;;;28.40;99.90;;;;;;5020451;28;20256;-72
2023/09/28 08:57:59;;;;;;;8.13;5.78;;;28.80;99.90;;;;;;5019263;28;20287;-72
2023/09/28 09:00:25;;;;;;;8.23;5.25;;;29.00;99.90;;;;;;5020794;28;20560;-73
2023/09/28 09:02:52;;;;;;;9.65;6.82;;;28.70;99.90;;;;;;5019835;28;20212;-70
2023/09/28 09:05:18;;;;;;;10.23;5.10;;;28.40;99.90;;;;;;5019680;28;20615;-72
2023/09/28 09:07:43;;;;;;;9.23;5.70;;;28.60;99.90;;;;;;5020630;28;20204;-73
2023/09/28 09:10:17;;;;;;;5.88;5.28;;;29.10;99.90;;;;;;5019023;28;20209;-72
2023/09/28 09:12:42;;;;;;;9.80;6.68;;;29.30;99.90;;;;;;5018198;28;20196;-73
2023/09/28 09:15:09;;;;;;;7.93;4.78;;;29.50;99.90;;;;;;5019310;28;20596;-72
2023/09/28 09:17:35;;;;;;;7.53;5.45;;;29.60;99.90;;;;;;5020834;28;20200;-74
2023/09/28 09:20:02;;;;;;;9.20;6.30;;;29.70;99.90;;;;;;5018286;28;20263;-73
2023/09/28 09:22:28;;;;;;;11.05;6.88;;;29.70;99.90;;;;;;5017366;28;20639;-73
2023/09/28 09:24:57;;;;;;;11.90;5.97;;;29.60;99.90;;;;;;5021203;28;20715;-73
2023/09/28 09:27:32;;;;;;;8.52;4.85;;;29.20;99.90;;;;;;5020031;28;20185;-73
2023/09/28 09:30:08;;;;;;;11.00;5.50;;;29.20;99.90;;;;;;5023498;28;20207;-72
2023/09/28 09:32:35;;;;;;;6.85;4.95;;;28.60;99.90;;;;;;5023029;28;20300;-73
2023/09/28 09:35:00;;;;;;;5.30;4.43;;;27.80;99.90;;;;;;5022848;28;20208;-73
2023/09/28 09:37:26;;;;;;;5.75;4.93;;;28.40;99.90;;;;;;5021740;28;20610;-73
2023/09/28 09:39:52;;;;;;;7.78;5.22;;;28.90;99.90;;;;;;5022922;28;20223;-73
2023/09/28 09:42:27;;;;;;;10.15;5.20;;;29.20;99.90;;;;;;5020825;28;20212;-74
2023/09/28 09:44:54;;;;;;;4.97;4.38;;;29.50;99.90;;;;;;5023000;28;20227;-72
2023/09/28 09:47:20;;;;;;;7.13;4.40;;;28.90;99.90;;;;;;5021284;28;20687;-73
2023/09/28 09:49:48;;;;;;;6.65;4.43;;;28.70;99.90;;;;;;5019670;28;20220;-74
2023/09/28 09:52:17;;;;;;;7.45;5.57;;;28.90;99.90;;;;;;5022158;28;20311;-73
2023/09/28 09:54:45;;;;;;;6.22;4.70;;;28.80;99.90;;;;;;5023134;28;20753;-73
2023/09/28 09:57:14;;;;;;;7.55;5.35;;;28.80;99.90;;;;;;5021281;28;20316;-73
2023/09/28 09:59:48;;;;;;;6.03;4.30;;;28.60;99.90;;;;;;5019508;28;20619;-73
2023/09/28 10:02:26;;;;;;;5.20;4.13;;;28.60;99.90;;;;;;5021296;28;20212;-73
2023/09/28 10:04:56;;;;;;;7.38;5.22;;;28.80;99.90;;;;;;5017618;28;20223;-72
2023/09/28 10:07:26;;;;;;;6.18;5.38;;;28.90;99.90;;;;;;5020362;28;20205;-73
2023/09/28 10:09:56;;;;;;;5.68;4.40;;;29.00;99.90;;;;;;5017856;28;20638;-72
2023/09/28 10:12:23;;;;;;;5.28;3.97;;;28.80;99.90;;;;;;5019715;28;20232;-74
2023/09/28 10:14:49;;;;;;;4.85;4.30;;;28.80;99.90;;;;;;5022627;28;20304;-74
2023/09/28 10:17:16;;;;;;;7.00;4.05;;;28.80;99.90;;;;;;5020601;28;20209;-74
2023/09/28 10:19:41;;;;;;;4.78;4.13;;;28.80;99.90;;;;;;5024160;28;20218;-73
2023/09/28 10:22:10;;;;;;;6.03;3.80;;;28.90;99.90;;;;;;5020143;28;20738;-74
2023/09/28 10:24:37;;;;;;;3.85;3.30;;;28.70;99.90;;;;;;5024125;28;20208;-73
2023/09/28 10:27:10;;;;;;;7.10;3.53;;;28.30;99.90;;;;;;5019762;28;20288;-72
2023/09/28 10:29:36;;;;;;;6.93;3.80;;;28.20;99.90;;;;;;5020312;28;20212;-74
2023/09/28 10:32:27;;;;;;;5.03;3.72;;;28.30;99.90;;;;;;5018856;28;20274;-73
2023/09/28 10:35:11;;;;;;;4.28;3.85;;;28.50;99.90;;;;;;5022902;28;20208;-73
2023/09/28 10:37:37;;;;;;;5.65;3.50;;;28.60;99.90;;;;;;5014580;28;20197;-73
2023/09/28 10:40:05;;;;;;;6.40;3.47;;;28.80;99.90;;;;;;5022399;28;20220;-73
2023/09/28 10:42:32;;;;;;;4.28;3.47;;;28.90;99.90;;;;;;5015699;28;20220;-73
2023/09/28 10:45:00;;;;;;;7.35;3.80;;;29.00;99.90;;;;;;5023655;28;20552;-73
2023/09/28 10:47:27;;;;;;;6.80;4.13;;;28.90;99.90;;;;;;5020177;28;20205;-73
2023/09/28 10:50:05;;;;;;;7.25;3.95;;;28.70;99.90;;;;;;5021833;28;20208;-73
2023/09/28 10:52:31;;;;;;;8.00;4.93;;;28.40;99.90;;;;;;5019211;28;20208;-73
2023/09/28 10:54:57;;;;;;;8.77;5.00;;;28.40;99.90;;;;;;5020850;28;20219;-73
2023/09/28 10:57:32;;;;;;;5.90;3.83;;;28.30;99.90;;;;;;5020915;28;20185;-73
2023/09/28 11:00:02;;;;;;;3.20;2.90;;;28.40;99.90;;;;;;5020463;28;20597;-72
2023/09/28 11:02:28;;;;;;;5.72;3.42;;;28.50;99.90;;;;;;5021155;28;20757;-74
2023/09/28 11:04:56;;;;;;;4.65;3.65;;;28.60;99.90;;;;;;5021419;28;20212;-73
2023/09/28 11:07:22;;;;;;;4.35;3.78;;;28.70;99.90;;;;;;5021277;28;20213;-74
2023/09/28 11:09:47;;;;;;;4.85;3.03;;;28.60;99.90;;;;;;5021779;28;20208;-74
2023/09/28 11:12:13;;;;;;;5.28;3.70;;;28.50;99.90;;;;;;5019538;28;20673;-74
2023/09/28 11:14:42;;;;;;;9.00;3.65;;;28.70;99.90;;;;;;5020206;28;20201;-73
2023/09/28 11:17:09;;;;;;;6.03;3.25;;;28.70;99.90;;;;;;5022023;28;20208;-72
2023/09/28 11:19:35;;;;;;;5.75;3.45;;;28.70;99.90;;;;;;5020044;28;20220;-73
2023/09/28 11:22:01;;;;;;;4.78;3.20;;;28.40;99.90;;;;;;5020973;28;20224;-73
2023/09/28 11:24:27;;;;;;;3.50;2.90;;;28.00;99.90;;;;;;5019200;28;20192;-73
2023/09/28 11:26:52;;;;;;;3.58;2.85;;;28.20;99.90;;;;;;5023150;28;20169;-73
2023/09/28 11:29:19;;;;;;;5.43;3.60;;;28.40;99.90;;;;;;5017701;28;20201;-73
2023/09/28 11:31:50;;;;;;;9.80;5.22;;;28.40;99.90;;;;;;5021121;28;20624;-73
2023/09/28 11:34:28;;;;;;;3.70;3.20;;;28.50;99.90;;;;;;5017481;28;20564;-73
2023/09/28 11:36:56;;;;;;;5.30;3.20;;;28.50;99.90;;;;;;5019280;28;20270;-73
2023/09/28 11:39:24;;;;;;;3.10;2.72;;;28.60;99.90;;;;;;5019899;28;20199;-73
2023/09/28 11:41:58;;;;;;;5.93;3.35;;;28.40;99.90;;;;;;5021510;28;20231;-72
2023/09/28 11:44:26;;;;;;;6.78;3.58;;;28.50;99.90;;;;;;5020425;28;20228;-73
2023/09/28 11:46:53;;;;;;;5.15;3.80;;;28.40;99.90;;;;;;5021461;28;20200;-72
2023/09/28 11:49:20;;;;;;;5.53;3.30;;;28.30;99.90;;;;;;5017891;28;20218;-74
2023/09/28 11:51:46;;;;;;;4.80;3.28;;;28.10;99.90;;;;;;5019972;28;20634;-73
2023/09/28 11:54:14;;;;;;;5.72;3.33;;;28.30;99.90;;;;;;5022186;28;20596;-73
2023/09/28 11:56:40;;;;;;;4.65;3.10;;;28.40;99.90;;;;;;5018477;28;20782;-73
2023/09/28 11:59:06;;;;;;;6.20;4.20;;;28.30;99.90;;;;;;5019268;28;20312;-74
2023/09/28 12:01:32;;;;;;;3.50;3.20;;;28.10;99.90;;;;;;5018836;28;20220;-72
2023/09/28 12:03:59;;;;;;;5.35;3.67;;;27.90;99.90;;;;;;5022181;28;20212;-73
2023/09/28 12:06:26;;;;;;;5.93;4.63;;;27.80;99.90;;;;;;5017415;28;20557;-73
2023/09/28 12:08:52;;;;;;;5.63;4.00;;;27.70;99.90;;;;;;5015126;28;20208;-72
2023/09/28 12:11:17;;;;;;;6.30;3.75;;;27.60;99.90;;;;;;5017646;28;20217;-74
2023/09/28 12:13:44;;;;;;;4.28;3.17;;;27.60;99.90;;;;;;5020899;28;20736;-74
2023/09/28 12:16:10;;;;;;;5.10;3.33;;;27.60;99.90;;;;;;5017962;28;20212;-74
2023/09/28 12:18:36;;;;;;;5.95;3.55;;;27.60;99.90;;;;;;5020714;28;20177;-74
2023/09/28 12:21:02;;;;;;;5.38;3.30;;;27.80;99.90;;;;;;5020536;28;20290;-71
2023/09/28 12:23:27;;;;;;;4.50;3.38;;;27.90;99.90;;;;;;5019758;28;20216;-74
2023/09/28 12:26:01;;;;;;;5.80;3.20;;;28.00;99.90;;;;;;5018015;28;20216;-74
2023/09/28 12:28:27;;;;;;;6.97;3.50;;;28.10;99.90;;;;;;5019546;28;20219;-74
2023/09/28 12:30:53;;;;;;;4.18;3.17;;;28.20;99.90;;;;;;5016359;28;20204;-74
2023/09/28 12:33:19;;;;;;;5.68;3.35;;;28.20;99.90;;;;;;5020350;28;20246;-73
2023/09/28 12:35:45;;;;;;;6.18;3.72;;;28.30;99.90;;;;;;5019615;28;20197;-74
2023/09/28 12:38:10;;;;;;;4.70;4.03;;;28.30;99.90;;;;;;5020880;28;20212;-73
2023/09/28 12:40:36;;;;;;;3.97;3.08;;;28.30;99.90;;;;;;5017473;28;20220;-74
2023/09/28 12:43:05;;;;;;;4.63;3.13;;;28.40;99.90;;;;;;5020973;28;20230;-74